ADB356F DAUG-GMFB
Flight info
| Callsign | ADB356F |
|---|---|
| Flight time | N/A |
| Altitude | 34000 |
| Route | GHA UJ67 IBNOD DCT AGREB DCT BRF |
| Aircraft | A124/J-SDE3FGHIM1M2RWXYZ/LB1 |
Departure
| Time | N/A |
|---|---|
| Airport | Noumérat - Moufdi Zakaria Airport (DAUG) |
Arrival
| Time | 2026-04-24 19:01 |
|---|---|
| Airport | Bouarfa Airport (GMFB) |
| Time | Latitude | Longitude | Altitude | Speed | Heading |
|---|---|---|---|---|---|
| 2026-04-24 18:54 | 32.44297 | -2.17993 | 8468 ft | 259 kts | 272° |
| 2026-04-24 18:55 | 32.46159 | -2.21451 | 8038 ft | 260 kts | 334° |
| 2026-04-24 18:55 | 32.47865 | -2.21980 | 7753 ft | 254 kts | 3° |
| 2026-04-24 18:55 | 32.49481 | -2.21503 | 7321 ft | 224 kts | 34° |
| 2026-04-24 18:56 | 32.50483 | -2.20304 | 6879 ft | 195 kts | 61° |
| 2026-04-24 18:56 | 32.51065 | -2.18859 | 6682 ft | 193 kts | 70° |
| 2026-04-24 18:56 | 32.51368 | -2.17428 | 6445 ft | 174 kts | 82° |
| 2026-04-24 18:56 | 32.51423 | -2.16005 | 6223 ft | 170 kts | 87° |
| 2026-04-24 18:57 | 32.51418 | -2.14604 | 5998 ft | 168 kts | 86° |
| 2026-04-24 18:57 | 32.51414 | -2.13215 | 5775 ft | 168 kts | 84° |
| 2026-04-24 18:57 | 32.51416 | -2.11890 | 5561 ft | 167 kts | 84° |
| 2026-04-24 18:57 | 32.51420 | -2.10497 | 5338 ft | 170 kts | 84° |
| 2026-04-24 18:58 | 32.51418 | -2.09107 | 5109 ft | 168 kts | 82° |
| 2026-04-24 18:58 | 32.51422 | -2.07723 | 4889 ft | 166 kts | 82° |
| 2026-04-24 18:58 | 32.51424 | -2.06382 | 4675 ft | 165 kts | 81° |
| 2026-04-24 18:58 | 32.51428 | -2.05077 | 4456 ft | 163 kts | 82° |
| 2026-04-24 18:59 | 32.51428 | -2.03723 | 4238 ft | 162 kts | 82° |
| 2026-04-24 18:59 | 32.51431 | -2.02374 | 4004 ft | 163 kts | 84° |
| 2026-04-24 18:59 | 32.51432 | -2.02084 | 3964 ft | 162 kts | 84° |
| 2026-04-24 18:59 | 32.51431 | -2.01291 | 3883 ft | 163 kts | 86° |
| 2026-04-24 19:00 | 32.51426 | -1.99990 | 3640 ft | 160 kts | 87° |
| 2026-04-24 19:00 | 32.51429 | -1.98790 | 3650 ft | 128 kts | 88° |
| 2026-04-24 19:00 | 32.51432 | -1.97955 | 3672 ft | 79 kts | 90° |
| 2026-04-24 19:00 | 32.51437 | -1.97370 | 3683 ft | 64 kts | 89° |
| 2026-04-24 19:01 | 32.51437 | -1.96896 | 3691 ft | 52 kts | 90° |
| 2026-04-24 19:01 | 32.51469 | -1.96624 | 3695 ft | 20 kts | 69° |
| 2026-04-24 19:01 | 32.51455 | -1.96549 | 3698 ft | 3 kts | 162° |
| 2026-04-24 19:01 | 32.51440 | -1.96559 | 3699 ft | 4 kts | 230° |
| 2026-04-24 19:02 | 32.51437 | -1.96564 | 3699 ft | 7 kts | 239° |
| 2026-04-24 19:02 | 32.51431 | -1.96611 | 3699 ft | 18 kts | 274° |
| 2026-04-24 19:02 | 32.51432 | -1.96888 | 3701 ft | 50 kts | 269° |
| 2026-04-24 19:02 | 32.51433 | -1.97358 | 3683 ft | 58 kts | 270° |
| 2026-04-24 19:03 | 32.51437 | -1.97768 | 3676 ft | 38 kts | 281° |
| 2026-04-24 19:03 | 32.51518 | -1.97834 | 3674 ft | 13 kts | 2° |
| 2026-04-24 19:03 | 32.51604 | -1.97830 | 3671 ft | 12 kts | 2° |
| 2026-04-24 19:03 | 32.51678 | -1.97829 | 3670 ft | 8 kts | 20° |
| 2026-04-24 19:04 | 32.51689 | -1.97804 | 3670 ft | 4 kts | 91° |
| 2026-04-24 19:04 | 32.51689 | -1.97788 | 3670 ft | 3 kts | 90° |